sensor_id;sensor_type;location;lat;lon;timestamp;P1;durP1;ratioP1;P2;durP2;ratioP2
40367;SDS011;26075;43.320;21.920;2023-07-20T00:00:26;7.45;;;2.40;;
40367;SDS011;26075;43.320;21.920;2023-07-20T00:05:27;11.07;;;2.42;;
40367;SDS011;26075;43.320;21.920;2023-07-20T00:10:28;8.40;;;2.45;;
40367;SDS011;26075;43.320;21.920;2023-07-20T00:21:07;9.18;;;2.55;;
40367;SDS011;26075;43.320;21.920;2023-07-20T00:26:09;6.90;;;2.38;;
40367;SDS011;26075;43.320;21.920;2023-07-20T00:31:10;9.18;;;3.03;;
40367;SDS011;26075;43.320;21.920;2023-07-20T00:36:11;7.75;;;2.53;;
40367;SDS011;26075;43.320;21.920;2023-07-20T00:41:12;7.40;;;2.63;;
40367;SDS011;26075;43.320;21.920;2023-07-20T00:46:14;6.55;;;2.78;;
40367;SDS011;26075;43.320;21.920;2023-07-20T00:57:15;7.70;;;2.40;;
40367;SDS011;26075;43.320;21.920;2023-07-20T01:02:18;9.10;;;3.22;;
40367;SDS011;26075;43.320;21.920;2023-07-20T01:12:53;5.55;;;2.40;;
40367;SDS011;26075;43.320;21.920;2023-07-20T01:17:55;9.63;;;2.45;;
40367;SDS011;26075;43.320;21.920;2023-07-20T01:33:02;11.23;;;3.67;;
40367;SDS011;26075;43.320;21.920;2023-07-20T01:38:03;9.15;;;2.40;;
40367;SDS011;26075;43.320;21.920;2023-07-20T01:43:05;14.57;;;4.25;;
40367;SDS011;26075;43.320;21.920;2023-07-20T01:48:06;7.78;;;2.45;;
40367;SDS011;26075;43.320;21.920;2023-07-20T01:53:08;10.63;;;3.05;;
40367;SDS011;26075;43.320;21.920;2023-07-20T01:58:09;10.05;;;2.45;;
40367;SDS011;26075;43.320;21.920;2023-07-20T02:08:48;9.27;;;2.72;;
40367;SDS011;26075;43.320;21.920;2023-07-20T02:13:49;6.00;;;2.53;;
40367;SDS011;26075;43.320;21.920;2023-07-20T02:18:50;11.50;;;2.70;;
40367;SDS011;26075;43.320;21.920;2023-07-20T02:23:51;9.43;;;2.65;;
40367;SDS011;26075;43.320;21.920;2023-07-20T02:34:49;9.18;;;2.67;;
40367;SDS011;26075;43.320;21.920;2023-07-20T02:39:50;6.80;;;2.30;;
40367;SDS011;26075;43.320;21.920;2023-07-20T02:44:51;7.18;;;2.47;;
40367;SDS011;26075;43.320;21.920;2023-07-20T02:49:52;8.77;;;3.38;;
40367;SDS011;26075;43.320;21.920;2023-07-20T03:00:50;9.60;;;2.80;;
40367;SDS011;26075;43.320;21.920;2023-07-20T03:05:51;12.93;;;2.65;;
40367;SDS011;26075;43.320;21.920;2023-07-20T03:11:07;8.95;;;3.00;;
40367;SDS011;26075;43.320;21.920;2023-07-20T03:16:08;9.82;;;2.80;;
40367;SDS011;26075;43.320;21.920;2023-07-20T03:21:11;9.02;;;3.75;;
40367;SDS011;26075;43.320;21.920;2023-07-20T03:26:12;11.10;;;3.00;;
40367;SDS011;26075;43.320;21.920;2023-07-20T03:31:13;10.25;;;2.83;;
40367;SDS011;26075;43.320;21.920;2023-07-20T03:36:15;15.23;;;4.55;;
40367;SDS011;26075;43.320;21.920;2023-07-20T03:41:16;9.18;;;2.85;;
40367;SDS011;26075;43.320;21.920;2023-07-20T03:46:17;8.60;;;2.75;;
40367;SDS011;26075;43.320;21.920;2023-07-20T03:57:07;11.15;;;3.20;;
40367;SDS011;26075;43.320;21.920;2023-07-20T04:02:09;10.27;;;2.67;;
40367;SDS011;26075;43.320;21.920;2023-07-20T04:07:20;11.32;;;3.55;;
40367;SDS011;26075;43.320;21.920;2023-07-20T04:12:21;13.10;;;2.95;;
40367;SDS011;26075;43.320;21.920;2023-07-20T04:17:22;8.65;;;3.50;;
40367;SDS011;26075;43.320;21.920;2023-07-20T04:22:23;11.38;;;3.40;;
40367;SDS011;26075;43.320;21.920;2023-07-20T04:27:24;11.88;;;3.20;;
40367;SDS011;26075;43.320;21.920;2023-07-20T04:38:23;15.95;;;3.42;;
40367;SDS011;26075;43.320;21.920;2023-07-20T04:43:24;10.25;;;3.88;;
40367;SDS011;26075;43.320;21.920;2023-07-20T04:54:06;11.40;;;3.22;;
40367;SDS011;26075;43.320;21.920;2023-07-20T04:59:07;12.02;;;3.30;;
40367;SDS011;26075;43.320;21.920;2023-07-20T05:04:21;17.38;;;3.50;;
40367;SDS011;26075;43.320;21.920;2023-07-20T05:09:22;17.35;;;3.20;;
40367;SDS011;26075;43.320;21.920;2023-07-20T05:14:23;13.50;;;3.60;;
40367;SDS011;26075;43.320;21.920;2023-07-20T05:19:25;10.65;;;3.38;;
40367;SDS011;26075;43.320;21.920;2023-07-20T05:29:53;16.20;;;4.35;;
40367;SDS011;26075;43.320;21.920;2023-07-20T05:34:54;9.40;;;3.58;;
40367;SDS011;26075;43.320;21.920;2023-07-20T05:39:55;9.23;;;3.20;;
40367;SDS011;26075;43.320;21.920;2023-07-20T05:44:56;12.88;;;3.15;;
40367;SDS011;26075;43.320;21.920;2023-07-20T05:49:57;11.73;;;3.85;;
40367;SDS011;26075;43.320;21.920;2023-07-20T05:54:59;12.13;;;3.83;;
40367;SDS011;26075;43.320;21.920;2023-07-20T06:00:00;8.25;;;3.55;;
40367;SDS011;26075;43.320;21.920;2023-07-20T06:05:01;12.88;;;4.00;;
40367;SDS011;26075;43.320;21.920;2023-07-20T06:10:02;12.75;;;3.05;;
40367;SDS011;26075;43.320;21.920;2023-07-20T06:15:04;9.63;;;3.60;;
40367;SDS011;26075;43.320;21.920;2023-07-20T06:20:05;13.15;;;3.88;;
40367;SDS011;26075;43.320;21.920;2023-07-20T06:25:07;11.85;;;4.40;;
40367;SDS011;26075;43.320;21.920;2023-07-20T06:30:08;16.20;;;3.83;;
40367;SDS011;26075;43.320;21.920;2023-07-20T06:35:10;19.63;;;4.95;;
40367;SDS011;26075;43.320;21.920;2023-07-20T06:40:11;12.57;;;3.90;;
40367;SDS011;26075;43.320;21.920;2023-07-20T06:45:12;12.27;;;4.22;;
40367;SDS011;26075;43.320;21.920;2023-07-20T06:50:13;9.43;;;3.22;;
40367;SDS011;26075;43.320;21.920;2023-07-20T06:55:14;15.02;;;3.78;;
40367;SDS011;26075;43.320;21.920;2023-07-20T07:00:15;10.93;;;3.78;;
40367;SDS011;26075;43.320;21.920;2023-07-20T07:05:17;10.35;;;3.22;;
40367;SDS011;26075;43.320;21.920;2023-07-20T07:10:34;12.77;;;4.05;;
40367;SDS011;26075;43.320;21.920;2023-07-20T07:15:35;11.48;;;3.45;;
40367;SDS011;26075;43.320;21.920;2023-07-20T07:20:37;14.55;;;5.18;;
40367;SDS011;26075;43.320;21.920;2023-07-20T07:25:38;12.02;;;4.13;;
40367;SDS011;26075;43.320;21.920;2023-07-20T07:30:39;10.35;;;4.38;;
40367;SDS011;26075;43.320;21.920;2023-07-20T07:35:40;14.68;;;4.30;;
40367;SDS011;26075;43.320;21.920;2023-07-20T07:40:41;10.82;;;3.35;;
40367;SDS011;26075;43.320;21.920;2023-07-20T07:45:42;9.82;;;3.63;;
40367;SDS011;26075;43.320;21.920;2023-07-20T07:50:53;11.18;;;3.60;;
40367;SDS011;26075;43.320;21.920;2023-07-20T07:55:54;13.57;;;3.63;;
40367;SDS011;26075;43.320;21.920;2023-07-20T08:00:56;8.85;;;3.00;;
40367;SDS011;26075;43.320;21.920;2023-07-20T08:05:57;11.32;;;3.65;;
40367;SDS011;26075;43.320;21.920;2023-07-20T08:11:00;8.30;;;3.25;;
40367;SDS011;26075;43.320;21.920;2023-07-20T08:16:01;11.13;;;3.78;;
40367;SDS011;26075;43.320;21.920;2023-07-20T08:21:05;19.67;;;4.25;;
40367;SDS011;26075;43.320;21.920;2023-07-20T08:26:06;13.68;;;3.92;;
40367;SDS011;26075;43.320;21.920;2023-07-20T08:37:03;10.55;;;3.70;;
40367;SDS011;26075;43.320;21.920;2023-07-20T08:42:05;10.43;;;3.40;;
40367;SDS011;26075;43.320;21.920;2023-07-20T08:47:06;15.20;;;4.07;;
40367;SDS011;26075;43.320;21.920;2023-07-20T08:52:08;11.80;;;4.47;;
40367;SDS011;26075;43.320;21.920;2023-07-20T08:57:09;7.90;;;3.60;;
40367;SDS011;26075;43.320;21.920;2023-07-20T09:07:41;12.00;;;3.83;;
40367;SDS011;26075;43.320;21.920;2023-07-20T09:12:42;11.85;;;3.38;;
40367;SDS011;26075;43.320;21.920;2023-07-20T09:17:47;18.13;;;4.03;;
40367;SDS011;26075;43.320;21.920;2023-07-20T09:22:50;8.73;;;4.00;;
40367;SDS011;26075;43.320;21.920;2023-07-20T09:27:52;7.40;;;3.50;;
40367;SDS011;26075;43.320;21.920;2023-07-20T09:32:54;13.55;;;3.92;;
40367;SDS011;26075;43.320;21.920;2023-07-20T09:42:56;9.38;;;3.97;;
40367;SDS011;26075;43.320;21.920;2023-07-20T09:48:06;17.90;;;5.63;;
40367;SDS011;26075;43.320;21.920;2023-07-20T09:53:07;12.80;;;4.80;;
40367;SDS011;26075;43.320;21.920;2023-07-20T09:58:10;17.95;;;5.03;;
40367;SDS011;26075;43.320;21.920;2023-07-20T10:08:40;20.52;;;5.57;;
40367;SDS011;26075;43.320;21.920;2023-07-20T10:24:22;10.27;;;3.80;;
40367;SDS011;26075;43.320;21.920;2023-07-20T10:40:37;11.10;;;3.63;;
40367;SDS011;26075;43.320;21.920;2023-07-20T10:45:39;9.95;;;4.05;;
40367;SDS011;26075;43.320;21.920;2023-07-20T10:56:20;9.88;;;4.07;;
40367;SDS011;26075;43.320;21.920;2023-07-20T11:01:30;10.88;;;4.90;;
40367;SDS011;26075;43.320;21.920;2023-07-20T11:06:48;10.73;;;3.58;;
40367;SDS011;26075;43.320;21.920;2023-07-20T11:12:08;10.55;;;4.00;;
40367;SDS011;26075;43.320;21.920;2023-07-20T11:17:13;10.87;;;4.33;;
40367;SDS011;26075;43.320;21.920;2023-07-20T11:22:16;10.77;;;4.28;;
40367;SDS011;26075;43.320;21.920;2023-07-20T11:27:17;12.25;;;4.75;;
40367;SDS011;26075;43.320;21.920;2023-07-20T11:32:25;10.45;;;4.13;;
40367;SDS011;26075;43.320;21.920;2023-07-20T11:37:26;16.83;;;4.27;;
40367;SDS011;26075;43.320;21.920;2023-07-20T11:42:27;7.60;;;3.50;;
40367;SDS011;26075;43.320;21.920;2023-07-20T11:47:29;6.80;;;3.03;;
40367;SDS011;26075;43.320;21.920;2023-07-20T11:52:30;14.52;;;4.80;;
40367;SDS011;26075;43.320;21.920;2023-07-20T11:57:32;10.73;;;2.90;;
40367;SDS011;26075;43.320;21.920;2023-07-20T12:02:33;8.98;;;3.80;;
40367;SDS011;26075;43.320;21.920;2023-07-20T12:07:35;9.88;;;3.92;;
40367;SDS011;26075;43.320;21.920;2023-07-20T12:12:43;18.30;;;5.32;;
40367;SDS011;26075;43.320;21.920;2023-07-20T12:22:45;12.77;;;4.10;;
40367;SDS011;26075;43.320;21.920;2023-07-20T12:27:47;10.63;;;3.95;;
40367;SDS011;26075;43.320;21.920;2023-07-20T12:32:48;10.27;;;4.13;;
40367;SDS011;26075;43.320;21.920;2023-07-20T12:37:49;7.93;;;3.83;;
40367;SDS011;26075;43.320;21.920;2023-07-20T12:42:51;10.40;;;4.00;;
40367;SDS011;26075;43.320;21.920;2023-07-20T12:47:52;10.82;;;3.85;;
40367;SDS011;26075;43.320;21.920;2023-07-20T12:52:53;9.73;;;3.50;;
40367;SDS011;26075;43.320;21.920;2023-07-20T12:57:54;8.80;;;3.50;;
40367;SDS011;26075;43.320;21.920;2023-07-20T13:03:08;7.35;;;3.88;;
40367;SDS011;26075;43.320;21.920;2023-07-20T13:08:09;13.38;;;4.32;;
40367;SDS011;26075;43.320;21.920;2023-07-20T13:13:11;11.05;;;3.30;;
40367;SDS011;26075;43.320;21.920;2023-07-20T13:18:12;10.85;;;4.45;;
40367;SDS011;26075;43.320;21.920;2023-07-20T13:28:39;10.32;;;4.50;;
40367;SDS011;26075;43.320;21.920;2023-07-20T13:33:40;11.68;;;4.50;;
40367;SDS011;26075;43.320;21.920;2023-07-20T13:38:41;9.23;;;4.53;;
40367;SDS011;26075;43.320;21.920;2023-07-20T13:43:48;7.63;;;3.75;;
40367;SDS011;26075;43.320;21.920;2023-07-20T13:48:49;12.60;;;4.20;;
40367;SDS011;26075;43.320;21.920;2023-07-20T13:53:50;9.82;;;3.65;;
40367;SDS011;26075;43.320;21.920;2023-07-20T13:59:05;10.23;;;3.05;;
40367;SDS011;26075;43.320;21.920;2023-07-20T14:04:06;15.82;;;3.20;;
40367;SDS011;26075;43.320;21.920;2023-07-20T14:09:08;8.10;;;3.50;;
40367;SDS011;26075;43.320;21.920;2023-07-20T14:14:09;9.93;;;3.60;;
40367;SDS011;26075;43.320;21.920;2023-07-20T14:19:10;9.80;;;4.50;;
40367;SDS011;26075;43.320;21.920;2023-07-20T14:24:12;7.93;;;4.55;;
40367;SDS011;26075;43.320;21.920;2023-07-20T14:29:13;13.40;;;7.70;;
40367;SDS011;26075;43.320;21.920;2023-07-20T14:45:14;13.50;;;5.53;;
40367;SDS011;26075;43.320;21.920;2023-07-20T14:56:12;8.55;;;4.80;;
40367;SDS011;26075;43.320;21.920;2023-07-20T15:01:13;11.05;;;5.32;;
40367;SDS011;26075;43.320;21.920;2023-07-20T15:11:39;9.90;;;5.00;;
40367;SDS011;26075;43.320;21.920;2023-07-20T15:16:40;7.90;;;4.97;;
40367;SDS011;26075;43.320;21.920;2023-07-20T15:27:39;17.40;;;5.75;;
40367;SDS011;26075;43.320;21.920;2023-07-20T15:32:42;13.27;;;5.75;;
40367;SDS011;26075;43.320;21.920;2023-07-20T15:43:04;9.88;;;5.30;;
40367;SDS011;26075;43.320;21.920;2023-07-20T15:48:05;13.75;;;5.60;;
40367;SDS011;26075;43.320;21.920;2023-07-20T15:53:06;13.77;;;5.20;;
40367;SDS011;26075;43.320;21.920;2023-07-20T15:58:07;12.20;;;6.35;;
40367;SDS011;26075;43.320;21.920;2023-07-20T16:03:09;11.40;;;5.20;;
40367;SDS011;26075;43.320;21.920;2023-07-20T16:08:11;10.75;;;5.15;;
40367;SDS011;26075;43.320;21.920;2023-07-20T16:13:12;9.82;;;4.25;;
40367;SDS011;26075;43.320;21.920;2023-07-20T16:18:13;8.10;;;4.57;;
40367;SDS011;26075;43.320;21.920;2023-07-20T16:23:30;7.93;;;4.50;;
40367;SDS011;26075;43.320;21.920;2023-07-20T16:28:31;6.63;;;3.97;;
40367;SDS011;26075;43.320;21.920;2023-07-20T16:33:32;8.20;;;4.40;;
40367;SDS011;26075;43.320;21.920;2023-07-20T16:38:34;8.02;;;4.20;;
40367;SDS011;26075;43.320;21.920;2023-07-20T16:43:36;14.73;;;5.10;;
40367;SDS011;26075;43.320;21.920;2023-07-20T16:48:39;8.80;;;4.65;;
40367;SDS011;26075;43.320;21.920;2023-07-20T16:53:43;11.02;;;4.65;;
40367;SDS011;26075;43.320;21.920;2023-07-20T16:58:44;14.80;;;6.07;;
40367;SDS011;26075;43.320;21.920;2023-07-20T17:03:52;11.95;;;5.43;;
40367;SDS011;26075;43.320;21.920;2023-07-20T17:09:05;10.90;;;4.32;;
40367;SDS011;26075;43.320;21.920;2023-07-20T17:14:06;10.40;;;5.07;;
40367;SDS011;26075;43.320;21.920;2023-07-20T17:19:07;11.88;;;4.97;;
40367;SDS011;26075;43.320;21.920;2023-07-20T17:24:08;11.95;;;5.82;;
40367;SDS011;26075;43.320;21.920;2023-07-20T17:29:09;9.80;;;5.80;;
40367;SDS011;26075;43.320;21.920;2023-07-20T17:34:10;10.85;;;5.13;;
40367;SDS011;26075;43.320;21.920;2023-07-20T17:39:11;11.50;;;5.20;;
40367;SDS011;26075;43.320;21.920;2023-07-20T17:44:12;9.32;;;5.15;;
40367;SDS011;26075;43.320;21.920;2023-07-20T17:49:13;9.98;;;5.40;;
40367;SDS011;26075;43.320;21.920;2023-07-20T17:54:14;10.77;;;5.82;;
40367;SDS011;26075;43.320;21.920;2023-07-20T17:59:23;10.32;;;6.68;;
40367;SDS011;26075;43.320;21.920;2023-07-20T18:04:24;10.10;;;5.80;;
40367;SDS011;26075;43.320;21.920;2023-07-20T18:09:44;11.57;;;6.00;;
40367;SDS011;26075;43.320;21.920;2023-07-20T18:14:45;14.43;;;6.63;;
40367;SDS011;26075;43.320;21.920;2023-07-20T18:19:46;14.85;;;7.28;;
40367;SDS011;26075;43.320;21.920;2023-07-20T18:24:49;13.05;;;7.45;;
40367;SDS011;26075;43.320;21.920;2023-07-20T18:35:25;13.73;;;6.82;;
40367;SDS011;26075;43.320;21.920;2023-07-20T18:46:04;14.70;;;7.65;;
40367;SDS011;26075;43.320;21.920;2023-07-20T18:56:52;14.18;;;7.10;;
40367;SDS011;26075;43.320;21.920;2023-07-20T19:02:04;15.63;;;8.70;;
40367;SDS011;26075;43.320;21.920;2023-07-20T19:07:06;16.02;;;6.85;;
40367;SDS011;26075;43.320;21.920;2023-07-20T19:12:07;16.63;;;9.55;;
40367;SDS011;26075;43.320;21.920;2023-07-20T19:17:09;13.07;;;8.48;;
40367;SDS011;26075;43.320;21.920;2023-07-20T19:22:10;14.43;;;7.53;;
40367;SDS011;26075;43.320;21.920;2023-07-20T19:27:11;10.50;;;6.97;;
40367;SDS011;26075;43.320;21.920;2023-07-20T19:32:12;11.73;;;7.45;;
40367;SDS011;26075;43.320;21.920;2023-07-20T19:37:13;14.77;;;7.53;;
40367;SDS011;26075;43.320;21.920;2023-07-20T19:42:14;18.20;;;8.20;;
40367;SDS011;26075;43.320;21.920;2023-07-20T19:47:16;14.60;;;7.85;;
40367;SDS011;26075;43.320;21.920;2023-07-20T19:57:56;12.40;;;7.78;;
40367;SDS011;26075;43.320;21.920;2023-07-20T20:08:27;16.30;;;9.65;;
40367;SDS011;26075;43.320;21.920;2023-07-20T20:13:29;16.17;;;9.63;;
40367;SDS011;26075;43.320;21.920;2023-07-20T20:24:00;11.63;;;8.00;;
40367;SDS011;26075;43.320;21.920;2023-07-20T20:29:07;12.10;;;7.22;;
40367;SDS011;26075;43.320;21.920;2023-07-20T20:34:09;10.13;;;6.80;;
40367;SDS011;26075;43.320;21.920;2023-07-20T20:39:12;12.70;;;7.25;;
40367;SDS011;26075;43.320;21.920;2023-07-20T20:44:13;15.75;;;6.60;;
40367;SDS011;26075;43.320;21.920;2023-07-20T20:54:45;11.93;;;7.18;;
40367;SDS011;26075;43.320;21.920;2023-07-20T21:05:26;13.63;;;6.93;;
40367;SDS011;26075;43.320;21.920;2023-07-20T21:10:27;10.52;;;7.63;;
40367;SDS011;26075;43.320;21.920;2023-07-20T21:15:29;12.23;;;7.45;;
40367;SDS011;26075;43.320;21.920;2023-07-20T21:31:43;13.38;;;8.13;;
40367;SDS011;26075;43.320;21.920;2023-07-20T21:36:44;19.30;;;8.30;;
40367;SDS011;26075;43.320;21.920;2023-07-20T21:41:45;12.38;;;7.50;;
40367;SDS011;26075;43.320;21.920;2023-07-20T21:46:46;10.13;;;8.23;;
40367;SDS011;26075;43.320;21.920;2023-07-20T21:51:47;22.05;;;9.20;;
40367;SDS011;26075;43.320;21.920;2023-07-20T21:56:48;11.77;;;7.60;;
40367;SDS011;26075;43.320;21.920;2023-07-20T22:01:49;10.13;;;8.10;;
40367;SDS011;26075;43.320;21.920;2023-07-20T22:18:06;10.52;;;7.82;;
40367;SDS011;26075;43.320;21.920;2023-07-20T22:23:07;9.68;;;7.75;;
40367;SDS011;26075;43.320;21.920;2023-07-20T22:28:08;11.68;;;7.78;;
40367;SDS011;26075;43.320;21.920;2023-07-20T22:33:09;11.73;;;8.93;;
40367;SDS011;26075;43.320;21.920;2023-07-20T22:38:11;11.93;;;8.20;;
40367;SDS011;26075;43.320;21.920;2023-07-20T22:43:13;12.98;;;7.85;;
40367;SDS011;26075;43.320;21.920;2023-07-20T22:48:14;10.02;;;7.85;;
40367;SDS011;26075;43.320;21.920;2023-07-20T22:53:16;15.57;;;10.13;;
40367;SDS011;26075;43.320;21.920;2023-07-20T22:58:17;20.77;;;8.68;;
40367;SDS011;26075;43.320;21.920;2023-07-20T23:03:18;12.77;;;8.85;;
40367;SDS011;26075;43.320;21.920;2023-07-20T23:08:19;11.70;;;8.40;;
40367;SDS011;26075;43.320;21.920;2023-07-20T23:13:20;10.05;;;8.25;;
40367;SDS011;26075;43.320;21.920;2023-07-20T23:18:24;13.60;;;9.10;;
40367;SDS011;26075;43.320;21.920;2023-07-20T23:23:25;15.57;;;9.43;;
40367;SDS011;26075;43.320;21.920;2023-07-20T23:28:26;14.25;;;9.00;;
40367;SDS011;26075;43.320;21.920;2023-07-20T23:33:27;10.32;;;7.90;;
40367;SDS011;26075;43.320;21.920;2023-07-20T23:38:28;10.52;;;8.38;;
40367;SDS011;26075;43.320;21.920;2023-07-20T23:43:30;10.73;;;8.13;;
40367;SDS011;26075;43.320;21.920;2023-07-20T23:48:31;16.52;;;9.00;;
40367;SDS011;26075;43.320;21.920;2023-07-20T23:53:40;11.45;;;8.27;;
40367;SDS011;26075;43.320;21.920;2023-07-20T23:58:43;17.27;;;8.40;;
